Time;durP1;ratioP1;P1;durP2;ratioP2;P2;SDS_P1;SDS_P2;PMS_P1;PMS_P2;Temp;Humidity;BMP_temperature;BMP_pressure;BME280_temperature;BME280_humidity;BME280_pressure;Samples;Min_cycle;Max_cycle;Signal;HPM_P1;HPM_P2
2024/02/02 00:00:26;;;;;;;23.65;17.40;;;;;;;3.00;81.14;99680.78;5062234;28;20036;-73
2024/02/02 00:02:52;;;;;;;23.05;16.05;;;;;;;3.01;80.88;99688.59;5081625;28;20024;-72
2024/02/02 00:05:26;;;;;;;19.23;16.42;;;;;;;3.01;81.76;99698.44;5065726;28;20147;-73
2024/02/02 00:07:57;;;;;;;26.45;16.17;;;;;;;3.02;81.73;99689.44;5067433;28;20041;-72
2024/02/02 00:10:27;;;;;;;23.42;17.95;;;;;;;3.04;81.95;99687.44;5049743;28;20040;-70
2024/02/02 00:12:59;;;;;;;24.05;18.70;;;;;;;2.96;81.79;99682.09;5063283;28;20029;-74
2024/02/02 00:15:28;;;;;;;22.75;17.10;;;;;;;2.92;82.07;99680.75;5067584;28;20032;-73
2024/02/02 00:17:55;;;;;;;23.55;18.60;;;;;;;2.76;82.10;99684.16;5083337;28;20478;-73
2024/02/02 00:20:21;;;;;;;22.13;16.88;;;;;;;2.64;82.13;99670.28;5065700;28;20040;-73
2024/02/02 00:22:54;;;;;;;26.48;20.00;;;;;;;2.64;82.60;99682.75;5075350;28;20027;-74
2024/02/02 00:25:26;;;;;;;20.65;15.93;;;;;;;2.61;82.33;99691.88;5066830;28;20055;-72
2024/02/02 00:27:59;;;;;;;23.70;18.25;;;;;;;2.62;82.69;99682.09;5060269;28;20349;-71
2024/02/02 00:30:25;;;;;;;22.92;17.08;;;;;;;2.55;82.58;99670.41;5065281;28;20576;-71
2024/02/02 00:32:55;;;;;;;27.08;20.17;;;;;;;2.61;82.64;99681.25;5080787;28;20056;-71
2024/02/02 00:35:39;;;;;;;24.02;19.50;;;;;;;2.53;82.42;99683.88;5045154;28;20609;-71
2024/02/02 00:38:09;;;;;;;23.75;17.75;;;;;;;2.53;82.13;99683.03;5080050;28;20043;-72
2024/02/02 00:40:35;;;;;;;25.10;19.50;;;;;;;2.52;82.08;99684.84;5081165;28;20094;-71
2024/02/02 00:43:01;;;;;;;25.83;18.27;;;;;;;2.44;81.97;99679.50;5079623;28;20024;-71
2024/02/02 00:45:33;;;;;;;25.40;18.75;;;;;;;2.46;82.81;99688.13;5079733;28;20052;-72
2024/02/02 00:48:08;;;;;;;23.42;19.00;;;;;;;2.40;82.46;99683.47;5080121;28;20089;-72
2024/02/02 00:50:46;;;;;;;24.63;19.13;;;;;;;2.32;82.94;99664.78;5045724;28;20041;-72
2024/02/02 00:53:13;;;;;;;29.20;20.67;;;;;;;2.33;82.57;99671.78;5063241;28;20036;-72
2024/02/02 00:55:41;;;;;;;28.75;20.45;;;;;;;2.23;83.37;99652.44;5079531;28;20107;-73
2024/02/02 00:58:31;;;;;;;29.33;20.65;;;;;;;2.30;83.30;99653.47;5056661;28;20393;-72
2024/02/02 01:01:01;;;;;;;28.50;20.88;;;;;;;2.15;83.05;99655.03;5079240;28;20033;-74
2024/02/02 01:03:28;;;;;;;24.35;18.70;;;;;;;2.22;83.68;99658.72;5064124;28;20047;-72
2024/02/02 01:06:04;;;;;;;26.90;19.52;;;;;;;2.23;83.26;99648.94;5072716;28;20028;-74
2024/02/02 01:08:33;;;;;;;28.40;20.42;;;;;;;2.16;82.97;99653.22;5079862;28;20037;-72
2024/02/02 01:11:04;;;;;;;31.60;21.98;;;;;;;2.02;83.42;99639.50;5044187;28;20068;-73
2024/02/02 01:13:35;;;;;;;25.30;21.40;;;;;;;2.04;83.21;99644.66;5061601;28;20510;-73
2024/02/02 01:16:02;;;;;;;28.20;21.58;;;;;;;2.07;83.34;99645.19;5080187;28;20404;-73
2024/02/02 01:18:28;;;;;;;26.88;19.65;;;;;;;2.04;83.76;99639.34;5060978;28;20047;-73
2024/02/02 01:20:57;;;;;;;28.58;21.10;;;;;;;1.92;84.22;99629.94;5077083;28;20764;-72
2024/02/02 01:23:24;;;;;;;30.95;20.25;;;;;;;2.00;83.62;99651.28;5076845;28;20024;-72
2024/02/02 01:25:50;;;;;;;27.77;19.75;;;;;;;1.98;83.41;99655.91;5071361;28;20058;-71
2024/02/02 01:28:19;;;;;;;24.50;18.08;;;;;;;1.92;84.08;99641.41;5079483;28;20527;-70
2024/02/02 01:30:49;;;;;;;24.75;18.15;;;;;;;1.94;83.23;99643.91;5077575;28;20060;-71
2024/02/02 01:33:15;;;;;;;23.20;17.08;;;;;;;1.94;83.83;99641.25;5069647;28;20070;-71
2024/02/02 01:35:41;;;;;;;20.17;15.98;;;;;;;1.99;83.90;99657.56;5078965;28;20062;-71
2024/02/02 01:38:10;;;;;;;24.40;16.50;;;;;;;2.05;83.51;99656.97;5080352;28;20020;-71
2024/02/02 01:40:37;;;;;;;24.50;17.25;;;;;;;2.07;83.08;99654.97;5081314;28;20024;-69
2024/02/02 01:43:03;;;;;;;29.70;18.75;;;;;;;2.09;83.73;99653.00;5076425;28;20016;-71
2024/02/02 01:45:30;;;;;;;27.52;17.42;;;;;;;2.06;83.45;99648.00;5079728;28;20067;-71
2024/02/02 01:47:56;;;;;;;24.25;16.67;;;;;;;2.00;83.92;99648.63;5081107;28;20021;-71
2024/02/02 01:50:23;;;;;;;25.23;16.67;;;;;;;1.97;83.98;99654.22;5067391;28;20235;-72
2024/02/02 01:52:49;;;;;;;21.45;14.95;;;;;;;1.87;83.55;99648.16;5059429;28;20044;-70
2024/02/02 01:55:15;;;;;;;23.20;14.77;;;;;;;1.92;83.57;99645.88;5069768;28;20059;-71
2024/02/02 01:57:42;;;;;;;26.92;16.33;;;;;;;1.74;83.91;99637.09;5062403;28;20279;-71
2024/02/02 02:00:08;;;;;;;22.70;15.10;;;;;;;1.95;83.19;99641.13;5081980;28;20028;-69
2024/02/02 02:02:36;;;;;;;24.35;15.15;;;;;;;1.95;83.38;99649.09;5065018;28;20033;-71
2024/02/02 02:05:06;;;;;;;24.77;15.02;;;;;;;1.93;83.85;99644.91;5071932;28;20037;-70
2024/02/02 02:07:48;;;;;;;20.85;14.48;;;;;;;1.80;83.95;99641.78;5058640;28;20042;-70
2024/02/02 02:10:15;;;;;;;27.95;17.13;;;;;;;1.85;84.14;99645.66;5082541;28;20060;-71
2024/02/02 02:12:50;;;;;;;28.35;16.35;;;;;;;1.93;83.95;99653.72;5080457;28;20103;-69
2024/02/02 02:15:23;;;;;;;30.42;15.95;;;;;;;1.88;84.55;99641.88;5064896;28;20099;-70
2024/02/02 02:17:55;;;;;;;22.42;14.23;;;;;;;1.90;84.31;99642.56;5050699;28;20039;-69
2024/02/02 02:20:25;;;;;;;21.17;14.63;;;;;;;2.01;84.16;99636.97;5063548;28;20069;-70
2024/02/02 02:23:01;;;;;;;20.63;13.90;;;;;;;2.01;83.99;99629.00;5063523;28;20032;-69
2024/02/02 02:25:29;;;;;;;27.00;15.63;;;;;;;2.05;84.01;99635.72;5082822;28;20040;-70
2024/02/02 02:27:55;;;;;;;24.45;14.48;;;;;;;2.14;84.96;99640.09;5083224;28;20031;-71
2024/02/02 02:30:21;;;;;;;24.20;15.38;;;;;;;2.18;84.43;99620.19;5044025;28;20422;-69
2024/02/02 02:32:47;;;;;;;23.88;15.40;;;;;;;2.26;84.94;99622.91;5078442;28;20033;-71
2024/02/02 02:35:13;;;;;;;20.35;13.93;;;;;;;2.38;84.48;99624.28;5062608;28;20037;-71
2024/02/02 02:37:39;;;;;;;24.25;14.45;;;;;;;2.43;84.97;99624.66;5078167;28;20083;-71
2024/02/02 02:40:05;;;;;;;17.73;13.52;;;;;;;2.46;85.26;99619.03;5080494;28;20083;-71
2024/02/02 02:42:31;;;;;;;19.52;13.23;;;;;;;2.40;85.22;99603.72;5060563;28;20029;-71
2024/02/02 02:44:57;;;;;;;21.75;14.27;;;;;;;2.51;84.71;99611.41;5059848;28;20028;-71
2024/02/02 02:47:23;;;;;;;25.23;14.73;;;;;;;2.40;84.79;99579.78;5075553;28;20035;-71
2024/02/02 02:49:49;;;;;;;20.08;12.95;;;;;;;2.56;85.61;99602.97;5070085;28;20120;-71
2024/02/02 02:52:15;;;;;;;23.75;13.57;;;;;;;2.58;85.49;99617.75;5078595;28;20051;-70
2024/02/02 02:54:41;;;;;;;27.08;14.18;;;;;;;2.55;85.53;99618.06;5077690;28;20800;-70
2024/02/02 02:57:06;;;;;;;21.70;13.60;;;;;;;2.50;85.22;99615.03;5077256;28;20079;-71
2024/02/02 02:59:32;;;;;;;29.85;14.35;;;;;;;2.57;85.08;99620.56;5057077;28;20500;-70
2024/02/02 03:01:58;;;;;;;24.10;14.35;;;;;;;2.53;85.48;99630.69;5077776;28;20024;-70
2024/02/02 03:04:24;;;;;;;23.55;14.25;;;;;;;2.50;85.18;99631.00;5068591;28;20051;-71
2024/02/02 03:06:50;;;;;;;20.60;14.13;;;;;;;2.52;85.40;99620.22;5079956;28;20020;-70
2024/02/02 03:09:18;;;;;;;19.63;13.80;;;;;;;2.44;84.54;99602.41;5079230;28;20040;-70
2024/02/02 03:11:45;;;;;;;22.58;14.43;;;;;;;2.55;84.84;99618.06;5078363;28;20035;-71
2024/02/02 03:14:11;;;;;;;22.40;14.73;;;;;;;2.52;84.83;99617.56;5078227;28;20044;-70
2024/02/02 03:16:37;;;;;;;27.25;14.98;;;;;;;2.38;84.70;99616.31;5078444;28;20043;-70
2024/02/02 03:19:04;;;;;;;24.13;14.88;;;;;;;2.41;84.95;99625.78;5077293;28;20048;-70
2024/02/02 03:21:29;;;;;;;28.40;15.13;;;;;;;2.38;84.36;99629.59;5077627;28;20039;-70
2024/02/02 03:26:58;;;;;;;24.25;15.18;;;;;;;2.37;84.63;99641.22;5073412;28;20046;-72
2024/02/02 03:29:42;;;;;;;24.88;13.85;;;;;;;2.34;84.51;99641.53;5078408;28;20051;-71
2024/02/02 03:32:26;;;;;;;24.73;14.60;;;;;;;2.34;83.95;99646.00;5078038;28;20531;-71
2024/02/02 03:35:30;;;;;;;25.02;15.63;;;;;;;2.24;84.50;99661.25;5076429;28;20028;-72
2024/02/02 03:38:14;;;;;;;26.58;17.13;;;;;;;2.17;84.10;99658.34;5075183;28;20088;-70
2024/02/02 03:40:40;;;;;;;27.08;16.20;;;;;;;2.08;85.12;99659.28;5060766;28;20123;-70
2024/02/02 03:43:10;;;;;;;29.15;16.63;;;;;;;2.13;84.08;99669.44;5069367;28;20055;-70
2024/02/02 03:48:39;;;;;;;31.30;17.27;;;;;;;2.12;84.61;99668.63;5071104;28;20047;-68
2024/02/02 03:54:08;;;;;;;26.77;17.10;;;;;;;2.13;83.96;99654.34;5071258;28;20033;-68
2024/02/02 03:56:52;;;;;;;30.77;18.00;;;;;;;2.16;83.88;99659.38;5070945;28;20089;-68
2024/02/02 03:59:27;;;;;;;39.42;25.05;;;;;;;2.14;84.33;99664.00;5078157;28;20496;-68
2024/02/02 04:01:53;;;;;;;45.85;27.33;;;;;;;2.03;84.39;99643.00;5076418;28;20112;-70
2024/02/02 04:04:19;;;;;;;31.67;21.50;;;;;;;2.10;84.54;99649.38;5078231;28;20080;-69
2024/02/02 04:06:45;;;;;;;42.30;22.23;;;;;;;2.06;83.96;99655.97;5075828;28;20094;-68
2024/02/02 04:09:12;;;;;;;29.08;18.48;;;;;;;1.94;83.97;99659.84;5076716;28;20063;-69
2024/02/02 04:11:37;;;;;;;29.38;16.92;;;;;;;1.87;84.53;99658.78;5056893;28;20048;-69
2024/02/02 04:14:03;;;;;;;26.95;17.30;;;;;;;1.80;84.96;99655.06;5073535;28;20400;-68
2024/02/02 04:16:29;;;;;;;28.80;15.70;;;;;;;1.74;85.01;99658.34;5052972;28;20045;-70
2024/02/02 04:18:54;;;;;;;26.20;17.30;;;;;;;1.77;85.19;99652.75;5073711;28;20040;-71
2024/02/02 04:21:20;;;;;;;28.52;18.77;;;;;;;1.80;84.89;99652.41;5072385;28;20396;-69
2024/02/02 04:23:45;;;;;;;34.88;19.70;;;;;;;1.79;85.30;99656.06;5073291;28;20396;-68
2024/02/02 04:26:10;;;;;;;30.55;18.88;;;;;;;1.68;85.63;99651.00;5073211;28;20116;-68
2024/02/02 04:28:36;;;;;;;25.08;15.63;;;;;;;1.71;86.32;99648.03;5073326;28;20537;-70
2024/02/02 04:31:01;;;;;;;24.65;16.13;;;;;;;1.79;86.10;99664.03;5072077;28;20063;-70
2024/02/02 04:33:27;;;;;;;28.02;16.38;;;;;;;1.80;86.14;99658.56;5073014;28;20040;-68
2024/02/02 04:35:52;;;;;;;29.15;17.42;;;;;;;1.91;86.31;99660.16;5067825;28;20080;-69
2024/02/02 04:38:18;;;;;;;30.60;18.00;;;;;;;1.91;86.58;99649.53;5072894;28;20017;-70
2024/02/02 04:40:47;;;;;;;37.55;21.23;;;;;;;2.04;85.50;99639.34;5072864;28;20036;-69
2024/02/02 04:43:12;;;;;;;35.88;18.38;;;;;;;2.09;86.24;99639.72;5072824;28;20393;-70
2024/02/02 04:45:38;;;;;;;27.70;16.92;;;;;;;2.18;85.86;99646.75;5071569;28;20043;-72
2024/02/02 04:48:07;;;;;;;29.42;17.38;;;;;;;2.15;86.34;99656.88;5072696;28;20442;-69
2024/02/02 04:50:32;;;;;;;34.50;16.55;;;;;;;2.07;86.82;99655.81;5071832;28;20033;-69
2024/02/02 04:52:58;;;;;;;28.15;16.65;;;;;;;2.24;86.42;99655.94;5072558;28;20031;-71
2024/02/02 04:55:23;;;;;;;41.28;16.90;;;;;;;2.32;85.99;99654.16;5072722;28;20044;-70
2024/02/02 04:57:49;;;;;;;34.03;17.38;;;;;;;2.25;85.99;99642.47;5050744;28;20028;-72
2024/02/02 05:00:15;;;;;;;38.70;18.90;;;;;;;2.37;85.77;99651.88;5071456;28;20048;-70
2024/02/02 05:02:40;;;;;;;31.35;18.40;;;;;;;2.45;86.26;99662.53;5070989;28;20055;-68
2024/02/02 05:05:06;;;;;;;37.92;17.85;;;;;;;2.44;86.12;99655.56;5072469;28;20057;-70
2024/02/02 05:07:32;;;;;;;31.98;17.73;;;;;;;2.52;86.40;99654.78;5072429;28;20044;-67
2024/02/02 05:09:57;;;;;;;35.83;16.45;;;;;;;2.58;86.16;99648.84;5071295;28;20036;-69
2024/02/02 05:12:23;;;;;;;27.83;15.18;;;;;;;2.52;85.81;99625.53;5072183;28;20436;-70
2024/02/02 05:14:49;;;;;;;29.77;16.10;;;;;;;2.65;86.33;99648.03;5072239;28;20060;-70
2024/02/02 05:17:15;;;;;;;29.42;15.45;;;;;;;2.69;86.30;99652.03;5072050;28;20020;-71
2024/02/02 05:19:40;;;;;;;48.92;27.45;;;;;;;2.60;85.68;99658.31;5069961;28;20049;-70
2024/02/02 05:22:05;;;;;;;37.88;21.83;;;;;;;2.66;86.25;99643.56;5072097;28;20032;-70
2024/02/02 05:24:31;;;;;;;38.00;21.92;;;;;;;2.72;85.53;99662.38;5067391;28;20404;-68
2024/02/02 05:26:56;;;;;;;36.17;18.92;;;;;;;2.75;85.53;99651.41;5070080;28;20150;-69
2024/02/02 05:29:22;;;;;;;37.50;20.23;;;;;;;2.74;85.18;99652.41;5071962;28;20043;-71
2024/02/02 05:31:47;;;;;;;33.75;19.83;;;;;;;2.71;85.69;99639.41;5071828;28;20515;-69
2024/02/02 05:34:13;;;;;;;33.63;18.92;;;;;;;2.75;85.60;99635.44;5071348;28;20118;-71
2024/02/02 05:36:38;;;;;;;32.45;17.15;;;;;;;2.89;85.90;99657.13;5071578;28;20050;-71
2024/02/02 05:39:03;;;;;;;35.45;17.23;;;;;;;2.94;85.40;99652.16;5071633;28;20131;-70
2024/02/02 05:41:29;;;;;;;39.20;17.50;;;;;;;2.97;84.87;99654.50;5071605;28;20024;-71
2024/02/02 05:43:54;;;;;;;33.55;16.27;;;;;;;3.01;84.86;99661.97;5070149;28;20516;-70
2024/02/02 05:46:19;;;;;;;32.20;16.17;;;;;;;3.05;85.46;99673.16;5071756;28;20108;-70
2024/02/02 05:48:45;;;;;;;27.88;15.70;;;;;;;3.10;85.20;99660.22;5068928;28;20145;-71
2024/02/02 05:51:10;;;;;;;28.75;16.92;;;;;;;3.08;84.86;99668.34;5070808;28;20538;-70
2024/02/02 05:53:36;;;;;;;35.05;17.50;;;;;;;3.06;84.64;99665.00;5071225;28;20111;-70
2024/02/02 05:56:01;;;;;;;30.90;17.05;;;;;;;3.02;85.20;99662.81;5071411;28;20103;-70
2024/02/02 05:58:27;;;;;;;39.05;17.33;;;;;;;2.99;85.04;99660.50;5071802;28;20502;-68
2024/02/02 06:00:53;;;;;;;31.83;15.32;;;;;;;2.99;85.24;99663.97;5071782;28;20082;-70
2024/02/02 06:03:20;;;;;;;30.05;14.55;;;;;;;3.05;84.75;99665.19;5070150;28;20041;-71
2024/02/02 06:05:45;;;;;;;30.98;15.90;;;;;;;3.08;85.05;99667.53;5070104;28;20419;-70
2024/02/02 06:08:13;;;;;;;30.77;15.00;;;;;;;3.12;84.82;99679.50;5070041;28;20040;-70
2024/02/02 06:10:40;;;;;;;32.38;15.32;;;;;;;3.14;84.53;99666.88;5065456;28;20032;-70
2024/02/02 06:13:06;;;;;;;37.42;16.92;;;;;;;3.16;84.49;99660.41;5069319;28;20066;-70
2024/02/02 06:15:31;;;;;;;42.92;21.63;;;;;;;3.12;84.49;99658.22;5069772;28;20468;-70
2024/02/02 06:17:57;;;;;;;38.50;21.48;;;;;;;3.12;84.76;99658.22;5070387;28;20060;-70
2024/02/02 06:20:22;;;;;;;39.92;21.90;;;;;;;3.07;84.17;99665.84;5071238;28;20161;-71
2024/02/02 06:22:48;;;;;;;31.95;17.45;;;;;;;3.12;84.33;99679.50;5070872;28;20051;-71
2024/02/02 06:25:17;;;;;;;35.50;15.82;;;;;;;3.07;84.61;99671.16;5067336;28;20036;-72
2024/02/02 06:27:42;;;;;;;33.88;16.13;;;;;;;3.15;84.19;99684.53;5045194;28;20078;-71
2024/02/02 06:30:08;;;;;;;38.35;16.30;;;;;;;3.14;84.34;99688.16;5071006;28;20057;-71
2024/02/02 06:32:35;;;;;;;31.42;16.60;;;;;;;2.99;84.71;99657.84;5069564;28;20108;-70
2024/02/02 06:35:02;;;;;;;33.03;15.93;;;;;;;3.06;84.09;99664.16;5069765;28;20045;-70
2024/02/02 06:37:27;;;;;;;31.63;15.23;;;;;;;3.19;83.89;99691.19;5069155;28;20086;-70
2024/02/02 06:39:54;;;;;;;37.47;16.42;;;;;;;3.20;84.18;99687.50;5072886;28;20040;-70
2024/02/02 06:42:20;;;;;;;28.58;15.00;;;;;;;3.19;84.51;99691.19;5074588;28;20041;-70
2024/02/02 06:44:45;;;;;;;29.63;15.48;;;;;;;3.15;83.71;99673.88;5073618;28;20082;-70
2024/02/02 06:47:11;;;;;;;31.98;16.05;;;;;;;3.22;83.95;99690.88;5073336;28;20037;-70
2024/02/02 06:49:36;;;;;;;28.88;15.57;;;;;;;3.25;84.10;99682.53;5074651;28;20020;-70
2024/02/02 06:52:02;;;;;;;29.15;15.35;;;;;;;3.26;83.76;99670.91;5074266;28;20201;-70
2024/02/02 06:54:27;;;;;;;28.88;15.90;;;;;;;3.15;83.72;99641.94;5071916;28;20028;-70
2024/02/02 06:56:53;;;;;;;28.48;15.35;;;;;;;3.20;83.44;99650.25;5070174;28;20043;-70
2024/02/02 06:59:19;;;;;;;54.05;25.80;;;;;;;3.27;84.09;99654.75;5075157;28;20074;-71
2024/02/02 07:01:47;;;;;;;104.97;54.10;;;;;;;3.27;83.64;99661.91;5074883;28;20048;-70
2024/02/02 07:04:14;;;;;;;42.15;23.58;;;;;;;3.31;83.69;99649.97;5054565;28;20128;-70
2024/02/02 07:06:40;;;;;;;58.03;31.95;;;;;;;3.23;83.36;99641.94;5051425;28;20392;-71
2024/02/02 07:09:20;;;;;;;50.45;24.92;;;;;;;3.34;83.55;99653.13;5066511;28;20019;-71
2024/02/02 07:11:56;;;;;;;96.07;57.38;;;;;;;3.35;83.47;99661.94;5074190;28;20037;-72
2024/02/02 07:14:44;;;;;;;32.45;19.10;;;;;;;3.17;83.61;99647.94;5073661;28;20047;-71
2024/02/02 07:17:16;;;;;;;30.52;16.67;;;;;;;3.30;83.58;99656.28;5070457;28;20032;-72
2024/02/02 07:19:42;;;;;;;37.63;16.77;;;;;;;3.29;83.75;99654.63;5074043;28;20036;-71
2024/02/02 07:22:22;;;;;;;32.97;15.30;;;;;;;3.35;83.86;99651.28;5074173;28;20434;-72
2024/02/02 07:24:48;;;;;;;29.65;16.27;;;;;;;3.31;84.05;99649.97;5074354;28;20044;-71
2024/02/02 07:27:41;;;;;;;35.55;17.20;;;;;;;3.33;84.16;99658.63;5074071;28;20147;-71
2024/02/02 07:30:12;;;;;;;34.25;16.00;;;;;;;3.37;83.63;99646.63;5073951;28;20378;-72
2024/02/02 07:32:37;;;;;;;34.45;17.15;;;;;;;3.53;83.87;99670.63;5074436;28;20068;-71
2024/02/02 07:35:03;;;;;;;30.50;16.90;;;;;;;3.51;83.52;99656.66;5072643;28;20063;-72
2024/02/02 07:37:47;;;;;;;29.25;16.55;;;;;;;3.58;83.43;99648.84;5071484;28;20066;-71
2024/02/02 07:40:30;;;;;;;30.17;15.55;;;;;;;3.56;83.50;99635.69;5055856;28;20112;-72
2024/02/02 07:42:57;;;;;;;30.40;16.33;;;;;;;3.57;83.81;99641.84;5073380;28;20032;-73
2024/02/02 07:45:22;;;;;;;27.45;15.70;;;;;;;3.62;83.27;99651.00;5074452;28;20032;-73
2024/02/02 07:47:47;;;;;;;34.72;17.02;;;;;;;3.62;83.73;99656.31;5076105;28;20029;-71
2024/02/02 07:50:13;;;;;;;29.95;16.60;;;;;;;3.68;83.42;99649.53;5072881;28;20474;-73
2024/02/02 07:55:22;;;;;;;32.63;16.33;;;;;;;3.68;83.54;99650.38;5073738;28;20032;-72
2024/02/02 07:58:06;;;;;;;28.00;15.57;;;;;;;3.67;83.08;99648.69;5069112;28;20407;-71
2024/02/02 08:00:32;;;;;;;29.92;15.82;;;;;;;3.72;83.63;99646.38;5073395;28;20052;-72
2024/02/02 08:02:58;;;;;;;30.23;16.45;;;;;;;3.71;82.96;99628.69;5073217;28;20043;-71
2024/02/02 08:08:27;;;;;;;29.02;15.65;;;;;;;3.85;83.57;99645.88;5070936;28;20039;-70
2024/02/02 08:11:11;;;;;;;24.80;14.35;;;;;;;3.91;83.08;99634.53;5074540;28;20035;-73
2024/02/02 08:13:56;;;;;;;29.45;15.77;;;;;;;3.92;82.91;99631.69;5059041;28;20109;-71
2024/02/02 08:16:21;;;;;;;32.90;15.68;;;;;;;3.86;83.37;99637.72;5073020;28;20044;-72
2024/02/02 08:18:46;;;;;;;30.38;14.88;;;;;;;3.91;83.31;99630.06;5073000;28;20012;-72
2024/02/02 08:21:12;;;;;;;27.58;15.35;;;;;;;3.90;83.11;99617.72;5072036;28;20028;-71
2024/02/02 08:23:37;;;;;;;29.38;16.77;;;;;;;3.85;82.68;99593.41;5071348;28;20420;-73
2024/02/02 08:26:03;;;;;;;30.58;15.43;;;;;;;3.95;82.95;99587.91;5072887;28;20063;-72
2024/02/02 08:28:29;;;;;;;30.30;15.43;;;;;;;4.04;82.74;99594.88;5072787;28;20024;-72
2024/02/02 08:30:54;;;;;;;33.33;15.30;;;;;;;4.02;82.74;99587.06;5071564;28;20032;-72
2024/02/02 08:33:40;;;;;;;32.80;16.33;;;;;;;4.00;82.54;99591.75;5072620;28;20414;-72
2024/02/02 08:36:07;;;;;;;28.65;16.27;;;;;;;4.08;82.81;99578.38;5069797;28;20115;-72
2024/02/02 08:38:51;;;;;;;23.85;15.05;;;;;;;4.16;82.30;99586.38;5071309;28;20024;-71
2024/02/02 08:41:35;;;;;;;26.83;14.52;;;;;;;4.15;82.48;99582.03;5071391;28;20089;-72
2024/02/02 08:44:22;;;;;;;26.15;14.85;;;;;;;4.14;82.49;99599.06;5069166;28;20090;-71
2024/02/02 08:46:48;;;;;;;28.65;14.52;;;;;;;4.22;82.61;99613.38;5072990;28;20044;-71
2024/02/02 08:49:40;;;;;;;30.08;14.75;;;;;;;4.26;82.05;99606.69;5054761;28;20085;-71
2024/02/02 08:52:09;;;;;;;23.00;14.52;;;;;;;4.17;82.88;99632.53;5061626;28;20041;-71
2024/02/02 08:54:36;;;;;;;29.73;14.32;;;;;;;4.22;82.72;99616.88;5069934;28;20035;-71
2024/02/02 08:57:29;;;;;;;29.30;14.98;;;;;;;4.25;82.37;99621.03;5072058;28;20035;-71
2024/02/02 08:59:55;;;;;;;31.92;14.13;;;;;;;4.39;82.20;99607.00;5064882;28;20060;-68
2024/02/02 09:02:55;;;;;;;30.30;14.13;;;;;;;4.34;82.26;99604.81;5070284;28;20052;-70
2024/02/02 09:05:22;;;;;;;27.88;13.85;;;;;;;4.44;82.45;99604.63;5068860;28;20519;-71
2024/02/02 09:07:50;;;;;;;24.90;13.00;;;;;;;4.48;82.59;99595.31;5069416;28;20480;-72
2024/02/02 09:10:57;;;;;;;26.45;13.77;;;;;;;4.46;82.02;99597.28;5071035;28;20044;-72
2024/02/02 09:13:30;;;;;;;31.65;14.70;;;;;;;4.59;82.38;99598.44;5067727;28;20129;-71
2024/02/02 09:15:56;;;;;;;23.45;13.48;;;;;;;4.68;82.49;99594.75;5070848;28;20047;-72
2024/02/02 09:18:32;;;;;;;28.80;13.90;;;;;;;4.76;81.88;99599.22;5068114;28;20021;-72
2024/02/02 09:20:58;;;;;;;30.10;13.45;;;;;;;4.91;81.60;99600.13;5062515;28;20098;-72
2024/02/02 09:23:24;;;;;;;25.85;12.50;;;;;;;5.01;81.49;99624.78;5067940;28;20472;-72
2024/02/02 09:25:49;;;;;;;23.55;12.98;;;;;;;4.99;81.89;99616.13;5071841;28;20025;-71
2024/02/02 09:28:24;;;;;;;25.90;12.57;;;;;;;5.05;81.52;99599.41;5062354;28;20077;-71
2024/02/02 09:31:00;;;;;;;25.98;12.93;;;;;;;5.00;81.14;99612.44;5072779;28;20036;-75
2024/02/02 09:33:31;;;;;;;27.42;12.27;;;;;;;5.02;80.82;99604.28;5070590;28;20044;-71
2024/02/02 09:35:59;;;;;;;24.02;12.23;;;;;;;4.96;81.20;99613.81;5067695;28;20584;-72
2024/02/02 09:38:24;;;;;;;29.75;13.00;;;;;;;4.89;81.32;99595.00;5053856;28;20013;-72
2024/02/02 09:41:02;;;;;;;24.55;13.13;;;;;;;5.03;81.33;99600.59;5068094;28;20049;-71
2024/02/02 09:43:43;;;;;;;24.35;12.27;;;;;;;5.04;80.58;99595.06;5072301;28;20036;-72
2024/02/02 09:46:33;;;;;;;30.52;11.95;;;;;;;5.09;80.50;99595.38;5070469;28;20058;-71
2024/02/02 09:49:06;;;;;;;28.77;12.25;;;;;;;5.21;80.34;99593.97;5070262;28;20032;-71
2024/02/02 09:51:47;;;;;;;24.08;11.20;;;;;;;5.26;80.65;99586.28;5071718;28;20540;-72
2024/02/02 09:54:17;;;;;;;21.42;12.85;;;;;;;5.24;80.78;99593.63;5071002;28;20455;-71
2024/02/02 09:56:53;;;;;;;31.33;15.50;;;;;;;5.30;80.23;99597.41;5069175;28;20052;-72
2024/02/02 09:59:35;;;;;;;22.45;12.20;;;;;;;5.36;80.33;99578.03;5069616;28;20064;-72
2024/02/02 10:02:42;;;;;;;20.02;11.15;;;;;;;5.31;79.69;99573.22;5067396;28;20048;-73
2024/02/02 10:05:36;;;;;;;24.75;11.85;;;;;;;5.47;79.96;99573.09;5050294;28;20045;-69
2024/02/02 10:08:12;;;;;;;24.52;11.50;;;;;;;5.44;80.54;99570.78;5070455;28;20040;-70
2024/02/02 10:10:53;;;;;;;26.20;11.93;;;;;;;5.41;79.85;99573.81;5073152;28;20040;-72
2024/02/02 10:13:41;;;;;;;28.27;11.40;;;;;;;5.37;79.60;99561.81;5070679;28;20044;-69
2024/02/02 10:16:35;;;;;;;22.52;11.50;;;;;;;5.38;79.54;99566.16;5069171;28;20481;-69
2024/02/02 10:19:03;;;;;;;25.02;11.18;;;;;;;5.47;79.62;99567.75;5073989;28;20036;-71
2024/02/02 10:21:48;;;;;;;22.02;11.25;;;;;;;5.54;79.49;99566.03;5079376;28;20028;-72
2024/02/02 10:24:37;;;;;;;22.83;10.70;;;;;;;5.56;79.31;99572.03;5074066;28;20045;-72
2024/02/02 10:27:39;;;;;;;22.98;10.30;;;;;;;5.62;78.95;99554.47;5050947;28;20082;-71
2024/02/02 10:30:14;;;;;;;20.42;11.30;;;;;;;5.69;79.75;99559.91;5067690;28;20043;-69
2024/02/02 10:32:46;;;;;;;20.90;10.02;;;;;;;5.69;79.37;99543.88;5063914;28;20041;-70
2024/02/02 10:35:11;;;;;;;26.35;10.95;;;;;;;5.68;79.53;99544.88;5081703;28;20092;-72
2024/02/02 10:37:37;;;;;;;23.33;11.10;;;;;;;5.63;80.18;99539.25;5073641;28;20116;-70
2024/02/02 10:40:22;;;;;;;19.08;10.60;;;;;;;5.64;79.93;99540.91;5066038;28;20063;-69
2024/02/02 10:43:03;;;;;;;22.23;11.15;;;;;;;5.71;80.14;99532.00;5052659;28;20029;-70
2024/02/02 10:45:53;;;;;;;20.83;9.88;;;;;;;5.76;79.14;99532.28;5068292;28;20526;-70
2024/02/02 10:48:35;;;;;;;22.77;10.88;;;;;;;5.90;79.36;99525.34;5085088;28;20024;-70
2024/02/02 10:51:16;;;;;;;22.73;9.52;;;;;;;5.89;79.91;99529.03;5074182;28;20039;-69
2024/02/02 10:53:56;;;;;;;17.10;9.20;;;;;;;6.00;79.46;99525.88;5073847;28;20103;-69
2024/02/02 10:56:29;;;;;;;14.98;9.73;;;;;;;6.03;78.94;99538.91;5074729;28;20499;-70
2024/02/02 10:59:34;;;;;;;16.15;8.70;;;;;;;5.98;79.68;99533.28;5072776;28;20025;-69
2024/02/02 11:02:21;;;;;;;18.38;9.65;;;;;;;6.08;79.48;99512.44;5060620;28;20500;-69
2024/02/02 11:05:20;;;;;;;20.27;9.60;;;;;;;6.05;80.52;99512.81;5066495;28;20045;-71
2024/02/02 11:07:56;;;;;;;19.25;9.70;;;;;;;6.10;79.62;99505.06;5073798;28;20044;-69
2024/02/02 11:10:28;;;;;;;15.98;9.25;;;;;;;6.18;80.87;99496.97;5068884;28;20040;-69
2024/02/02 11:13:00;;;;;;;17.50;9.68;;;;;;;6.29;80.78;99499.19;5069433;28;20062;-69
2024/02/02 11:15:44;;;;;;;17.52;10.10;;;;;;;6.25;80.92;99497.91;5066230;28;20109;-69
2024/02/02 11:18:29;;;;;;;19.02;11.20;;;;;;;6.20;80.24;99492.28;5074305;28;20058;-72
2024/02/02 11:21:02;;;;;;;17.45;10.38;;;;;;;6.19;80.89;99487.91;5066638;28;20068;-69
2024/02/02 11:23:36;;;;;;;19.08;11.43;;;;;;;6.28;81.74;99497.50;5072917;28;20041;-69
2024/02/02 11:26:17;;;;;;;17.90;12.18;;;;;;;6.26;81.88;99495.03;5073639;28;20036;-70
2024/02/02 11:28:54;;;;;;;22.17;12.73;;;;;;;6.28;81.15;99500.19;5074289;28;20037;-72
2024/02/02 11:31:32;;;;;;;19.50;13.13;;;;;;;6.34;81.51;99490.59;5074136;28;20119;-71
2024/02/02 11:34:18;;;;;;;21.35;13.27;;;;;;;6.37;82.03;99490.22;5060959;28;20066;-70
2024/02/02 11:36:54;;;;;;;21.15;13.55;;;;;;;6.43;81.76;99476.94;5072749;28;20040;-72
2024/02/02 11:39:38;;;;;;;;;;;;;;;6.20;81.81;99478.91;5073533;28;20044;-69
2024/02/02 11:42:06;;;;;;;17.95;13.95;;;;;;;6.52;82.27;99473.13;5070521;28;19916;-71
2024/02/02 11:44:34;;;;;;;21.05;14.18;;;;;;;6.44;82.52;99464.41;5072701;28;20032;-71
2024/02/02 11:47:01;;;;;;;20.45;14.43;;;;;;;6.50;82.81;99453.75;5072656;28;20438;-71
2024/02/02 11:49:33;;;;;;;21.67;14.23;;;;;;;6.62;82.31;99456.78;5072755;28;20506;-69
2024/02/02 11:52:04;;;;;;;19.48;14.32;;;;;;;6.62;81.61;99451.44;5066427;28;20516;-69
2024/02/02 11:54:56;;;;;;;21.73;14.10;;;;;;;6.68;81.50;99442.63;5072659;28;20108;-69
2024/02/02 11:57:23;;;;;;;19.80;14.27;;;;;;;6.68;82.88;99439.97;5073555;28;20032;-71
2024/02/02 11:59:51;;;;;;;17.55;13.15;;;;;;;6.77;81.28;99450.38;5072468;28;20035;-71